TimeCST,TemperatureF,Dew PointF,Humidity,Sea Level PressureIn,VisibilityMPH,Wind Direction,Wind SpeedMPH,Gust SpeedMPH,PrecipitationIn,Events,Conditions,WindDirDegrees,DateUTC
12:15 AM,24.3,15.3,69,30.15,10.0,East,8.1,-,N/A,,Clear,90,2013-02-17 06:15:00
12:35 AM,23.9,14.9,69,30.15,10.0,ESE,6.9,-,N/A,,Clear,110,2013-02-17 06:35:00
12:55 AM,23.2,14.5,70,30.15,10.0,ESE,5.8,-,N/A,,Clear,110,2013-02-17 06:55:00
1:15 AM,23.0,14.5,70,30.15,10.0,ESE,6.9,-,N/A,,Clear,110,2013-02-17 07:15:00
1:35 AM,22.8,14.0,69,30.15,10.0,ESE,5.8,-,N/A,,Clear,120,2013-02-17 07:35:00
1:55 AM,21.9,13.8,71,30.15,10.0,ESE,5.8,-,N/A,,Clear,120,2013-02-17 07:55:00
2:15 AM,21.9,13.8,71,30.15,10.0,ESE,5.8,-,N/A,,Clear,120,2013-02-17 08:15:00
2:35 AM,21.9,13.6,70,30.15,10.0,ESE,5.8,-,N/A,,Clear,120,2013-02-17 08:35:00
2:55 AM,21.7,13.5,70,30.15,10.0,SE,5.8,-,N/A,,Clear,130,2013-02-17 08:55:00
3:15 AM,21.7,13.1,69,30.15,10.0,ESE,6.9,-,N/A,,Clear,120,2013-02-17 09:15:00
3:35 AM,21.7,13.1,69,30.15,10.0,ESE,5.8,-,N/A,,Clear,120,2013-02-17 09:35:00
3:55 AM,21.0,12.6,70,30.15,10.0,SE,4.6,-,N/A,,Clear,130,2013-02-17 09:55:00
4:15 AM,21.0,12.7,70,30.15,10.0,ESE,5.8,-,N/A,,Clear,120,2013-02-17 10:15:00
4:35 AM,21.2,12.6,69,30.14,10.0,ESE,5.8,-,N/A,,Clear,120,2013-02-17 10:35:00
4:55 AM,21.6,12.6,68,30.15,10.0,SE,5.8,-,N/A,,Clear,130,2013-02-17 10:55:00
5:15 AM,21.2,12.2,68,30.15,10.0,SE,6.9,-,N/A,,Clear,140,2013-02-17 11:15:00
5:35 AM,21.7,12.4,67,30.15,10.0,SE,6.9,-,N/A,,Clear,130,2013-02-17 11:35:00
5:55 AM,21.7,12.6,68,30.14,10.0,ESE,8.1,-,N/A,,Clear,120,2013-02-17 11:55:00
6:15 AM,21.9,12.6,67,30.13,10.0,ESE,8.1,-,N/A,,Clear,110,2013-02-17 12:15:00
6:35 AM,22.1,12.7,67,30.13,10.0,ESE,10.4,-,N/A,,Clear,120,2013-02-17 12:35:00
6:55 AM,22.5,13.1,67,30.14,10.0,SE,9.2,-,N/A,,Clear,140,2013-02-17 12:55:00
7:15 AM,22.1,13.1,68,30.13,10.0,SE,8.1,-,N/A,,Clear,130,2013-02-17 13:15:00
7:35 AM,23.5,13.8,66,30.13,10.0,ESE,9.2,-,N/A,,Clear,110,2013-02-17 13:35:00
7:55 AM,25.2,15.1,66,30.13,10.0,ESE,10.4,-,N/A,,Clear,110,2013-02-17 13:55:00
8:15 AM,26.2,14.7,62,30.13,10.0,SE,10.4,-,N/A,,Mostly Cloudy,140,2013-02-17 14:15:00
8:35 AM,26.6,15.6,63,30.13,10.0,SE,11.5,-,N/A,,Mostly Cloudy,130,2013-02-17 14:35:00
8:55 AM,27.7,16.5,63,30.13,10.0,SE,10.4,-,N/A,,Scattered Clouds,130,2013-02-17 14:55:00
9:15 AM,29.8,17.2,59,30.13,10.0,SSE,12.7,-,N/A,,Clear,150,2013-02-17 15:15:00
9:35 AM,30.9,17.4,57,30.13,10.0,SE,12.7,-,N/A,,Clear,140,2013-02-17 15:35:00
9:55 AM,32.0,17.8,56,30.13,10.0,SE,10.4,-,N/A,,Clear,130,2013-02-17 15:55:00
10:15 AM,32.9,18.0,54,30.13,10.0,SE,9.2,-,N/A,,Clear,140,2013-02-17 16:15:00
10:35 AM,35.1,18.0,50,30.12,10.0,SE,10.4,-,N/A,,Clear,140,2013-02-17 16:35:00
10:55 AM,36.3,17.8,47,30.12,10.0,SE,10.4,-,N/A,,Clear,140,2013-02-17 16:55:00
11:15 AM,37.9,18.0,45,30.12,10.0,SSE,13.8,-,N/A,,Clear,160,2013-02-17 17:15:00
11:35 AM,39.2,18.5,43,30.10,10.0,SSE,16.1,19.6,N/A,,Clear,150,2013-02-17 17:35:00
11:55 AM,40.1,18.3,42,30.08,10.0,SSE,16.1,19.6,N/A,,Clear,150,2013-02-17 17:55:00
12:15 PM,41.0,17.6,39,30.07,10.0,SE,16.1,-,N/A,,Clear,140,2013-02-17 18:15:00
12:35 PM,42.3,17.2,37,30.06,10.0,SSE,17.3,20.7,N/A,,Clear,150,2013-02-17 18:35:00
12:55 PM,43.2,15.8,33,30.04,10.0,SE,15.0,18.4,N/A,,Clear,130,2013-02-17 18:55:00
1:15 PM,43.7,15.4,32,30.02,10.0,SE,15.0,21.9,N/A,,Clear,140,2013-02-17 19:15:00
1:35 PM,43.9,15.8,32,30.01,10.0,SSE,18.4,-,N/A,,Clear,150,2013-02-17 19:35:00
1:55 PM,44.8,15.8,31,30.00,10.0,SSE,18.4,23.0,N/A,,Clear,150,2013-02-17 19:55:00
2:15 PM,45.3,16.7,32,29.99,10.0,SSE,16.1,23.0,N/A,,Clear,160,2013-02-17 20:15:00
2:35 PM,45.1,16.3,32,29.98,10.0,SSE,16.1,24.2,N/A,,Clear,150,2013-02-17 20:35:00
2:55 PM,45.3,16.7,32,29.97,10.0,SSE,17.3,21.9,N/A,,Clear,150,2013-02-17 20:55:00
3:15 PM,45.7,16.0,30,29.96,10.0,SE,16.1,-,N/A,,Clear,130,2013-02-17 21:15:00
3:35 PM,45.9,16.0,30,29.95,10.0,SE,17.3,21.9,N/A,,Clear,130,2013-02-17 21:35:00
3:55 PM,45.5,16.5,31,29.95,10.0,SE,16.1,23.0,N/A,,Clear,140,2013-02-17 21:55:00
4:15 PM,45.5,16.9,32,29.94,10.0,SE,17.3,23.0,N/A,,Clear,140,2013-02-17 22:15:00
4:35 PM,44.8,16.5,32,29.94,10.0,SE,19.6,26.5,N/A,,Clear,140,2013-02-17 22:35:00
4:55 PM,43.7,16.5,34,29.93,10.0,SE,15.0,23.0,N/A,,Clear,140,2013-02-17 22:55:00
5:15 PM,42.4,17.6,37,29.93,10.0,SE,16.1,-,N/A,,Clear,140,2013-02-17 23:15:00
5:35 PM,41.7,18.1,39,29.91,10.0,SE,11.5,-,N/A,,Clear,130,2013-02-17 23:35:00
5:55 PM,40.6,19.0,42,29.91,10.0,SE,11.5,-,N/A,,Clear,130,2013-02-17 23:55:00
6:15 PM,41.0,18.5,40,29.91,10.0,SE,12.7,17.3,N/A,,Clear,130,2013-02-18 00:15:00
6:35 PM,40.3,19.0,43,29.90,10.0,SE,13.8,17.3,N/A,,Clear,130,2013-02-18 00:35:00
6:55 PM,40.5,18.9,42,29.90,10.0,SE,12.7,-,N/A,,Clear,130,2013-02-18 00:55:00
7:15 PM,40.3,18.5,42,29.90,10.0,SE,12.7,21.9,N/A,,Clear,130,2013-02-18 01:15:00
7:35 PM,39.9,18.5,42,29.89,10.0,SE,15.0,-,N/A,,Clear,140,2013-02-18 01:35:00
7:55 PM,40.1,18.9,43,29.88,10.0,SE,17.3,21.9,N/A,,Clear,140,2013-02-18 01:55:00
8:15 PM,39.6,19.4,44,29.87,10.0,SE,17.3,21.9,N/A,,Clear,140,2013-02-18 02:15:00
8:35 PM,39.4,19.8,45,29.86,10.0,SE,18.4,25.3,N/A,,Clear,140,2013-02-18 02:35:00
8:55 PM,39.6,19.9,45,29.86,10.0,SE,16.1,21.9,N/A,,Clear,140,2013-02-18 02:55:00
9:15 PM,39.6,20.3,46,29.85,10.0,SE,17.3,23.0,N/A,,Clear,140,2013-02-18 03:15:00
9:35 PM,39.6,20.3,46,29.84,10.0,SE,17.3,25.3,N/A,,Clear,140,2013-02-18 03:35:00
9:55 PM,40.1,21.0,47,29.83,10.0,SE,17.3,25.3,N/A,,Clear,140,2013-02-18 03:55:00
10:15 PM,40.3,21.2,47,29.82,10.0,SE,18.4,21.9,N/A,,Clear,140,2013-02-18 04:15:00
10:35 PM,40.3,22.1,48,29.81,10.0,SSE,18.4,26.5,N/A,,Clear,150,2013-02-18 04:35:00
10:55 PM,40.3,23.0,50,29.81,10.0,SSE,18.4,23.0,N/A,,Clear,150,2013-02-18 04:55:00
11:15 PM,40.1,23.5,52,29.80,10.0,SSE,19.6,24.2,N/A,,Clear,160,2013-02-18 05:15:00
11:35 PM,40.1,24.3,53,29.80,10.0,SSE,17.3,23.0,N/A,,Clear,150,2013-02-18 05:35:00
11:55 PM,40.1,25.2,55,29.78,10.0,SSE,19.6,26.5,N/A,,Clear,150,2013-02-18 05:55:00